sensor_id;sensor_type;location;lat;lon;timestamp;P1;durP1;ratioP1;P2;durP2;ratioP2
35188;SDS011;21762;54.480;18.556;2023-05-10T00:02:12;9.32;;;4.35;;
35188;SDS011;21762;54.480;18.556;2023-05-10T00:04:40;10.68;;;4.93;;
35188;SDS011;21762;54.480;18.556;2023-05-10T00:07:09;7.85;;;4.63;;
35188;SDS011;21762;54.480;18.556;2023-05-10T00:09:38;9.70;;;4.40;;
35188;SDS011;21762;54.480;18.556;2023-05-10T00:12:06;9.00;;;4.75;;
35188;SDS011;21762;54.480;18.556;2023-05-10T00:14:35;8.27;;;4.82;;
35188;SDS011;21762;54.480;18.556;2023-05-10T00:17:05;8.23;;;4.38;;
35188;SDS011;21762;54.480;18.556;2023-05-10T00:19:33;10.88;;;4.57;;
35188;SDS011;21762;54.480;18.556;2023-05-10T00:22:01;7.40;;;4.05;;
35188;SDS011;21762;54.480;18.556;2023-05-10T00:24:30;7.72;;;4.35;;
35188;SDS011;21762;54.480;18.556;2023-05-10T00:26:58;5.50;;;3.75;;
35188;SDS011;21762;54.480;18.556;2023-05-10T00:29:27;10.10;;;4.78;;
35188;SDS011;21762;54.480;18.556;2023-05-10T00:31:55;8.98;;;4.50;;
35188;SDS011;21762;54.480;18.556;2023-05-10T00:34:25;11.45;;;4.50;;
35188;SDS011;21762;54.480;18.556;2023-05-10T00:36:54;10.55;;;4.72;;
35188;SDS011;21762;54.480;18.556;2023-05-10T00:39:22;12.02;;;5.70;;
35188;SDS011;21762;54.480;18.556;2023-05-10T00:41:51;9.45;;;4.63;;
35188;SDS011;21762;54.480;18.556;2023-05-10T00:44:19;8.70;;;4.22;;
35188;SDS011;21762;54.480;18.556;2023-05-10T00:46:48;12.00;;;4.70;;
35188;SDS011;21762;54.480;18.556;2023-05-10T00:49:17;10.73;;;4.90;;
35188;SDS011;21762;54.480;18.556;2023-05-10T00:51:47;10.90;;;5.18;;
35188;SDS011;21762;54.480;18.556;2023-05-10T00:54:15;11.50;;;4.70;;
35188;SDS011;21762;54.480;18.556;2023-05-10T00:56:44;9.10;;;4.47;;
35188;SDS011;21762;54.480;18.556;2023-05-10T00:59:15;11.65;;;4.80;;
35188;SDS011;21762;54.480;18.556;2023-05-10T01:01:44;9.55;;;4.53;;
35188;SDS011;21762;54.480;18.556;2023-05-10T01:04:13;8.75;;;5.30;;
35188;SDS011;21762;54.480;18.556;2023-05-10T01:06:42;7.93;;;4.35;;
35188;SDS011;21762;54.480;18.556;2023-05-10T01:09:12;7.45;;;4.40;;
35188;SDS011;21762;54.480;18.556;2023-05-10T01:11:41;10.48;;;4.95;;
35188;SDS011;21762;54.480;18.556;2023-05-10T01:14:09;7.72;;;5.15;;
35188;SDS011;21762;54.480;18.556;2023-05-10T01:16:40;8.55;;;4.45;;
35188;SDS011;21762;54.480;18.556;2023-05-10T01:19:10;11.45;;;5.38;;
35188;SDS011;21762;54.480;18.556;2023-05-10T01:21:43;9.43;;;4.97;;
35188;SDS011;21762;54.480;18.556;2023-05-10T01:27:45;8.43;;;4.65;;
35188;SDS011;21762;54.480;18.556;2023-05-10T01:33:40;9.95;;;4.78;;
35188;SDS011;21762;54.480;18.556;2023-05-10T01:36:13;12.00;;;6.00;;
35188;SDS011;21762;54.480;18.556;2023-05-10T01:38:47;9.05;;;5.30;;
35188;SDS011;21762;54.480;18.556;2023-05-10T01:41:18;10.77;;;5.22;;
35188;SDS011;21762;54.480;18.556;2023-05-10T01:43:52;11.05;;;4.70;;
35188;SDS011;21762;54.480;18.556;2023-05-10T01:46:26;9.70;;;4.95;;
35188;SDS011;21762;54.480;18.556;2023-05-10T01:48:58;10.18;;;5.28;;
35188;SDS011;21762;54.480;18.556;2023-05-10T01:51:29;9.93;;;4.95;;
35188;SDS011;21762;54.480;18.556;2023-05-10T01:54:00;14.13;;;5.25;;
35188;SDS011;21762;54.480;18.556;2023-05-10T01:56:30;10.23;;;5.45;;
35188;SDS011;21762;54.480;18.556;2023-05-10T01:59:00;13.05;;;5.05;;
35188;SDS011;21762;54.480;18.556;2023-05-10T02:01:34;8.75;;;5.00;;
35188;SDS011;21762;54.480;18.556;2023-05-10T02:04:06;8.32;;;4.90;;
35188;SDS011;21762;54.480;18.556;2023-05-10T02:06:35;12.25;;;5.70;;
35188;SDS011;21762;54.480;18.556;2023-05-10T02:09:05;13.55;;;5.80;;
35188;SDS011;21762;54.480;18.556;2023-05-10T02:11:34;11.30;;;5.57;;
35188;SDS011;21762;54.480;18.556;2023-05-10T02:14:03;12.88;;;4.63;;
35188;SDS011;21762;54.480;18.556;2023-05-10T02:16:31;9.25;;;4.93;;
35188;SDS011;21762;54.480;18.556;2023-05-10T02:19:00;9.40;;;5.35;;
35188;SDS011;21762;54.480;18.556;2023-05-10T02:21:31;7.43;;;5.15;;
35188;SDS011;21762;54.480;18.556;2023-05-10T02:24:01;9.98;;;5.05;;
35188;SDS011;21762;54.480;18.556;2023-05-10T02:26:31;10.77;;;5.85;;
35188;SDS011;21762;54.480;18.556;2023-05-10T02:29:01;12.25;;;5.10;;
35188;SDS011;21762;54.480;18.556;2023-05-10T02:31:30;15.40;;;5.13;;
35188;SDS011;21762;54.480;18.556;2023-05-10T02:34:00;10.02;;;5.30;;
35188;SDS011;21762;54.480;18.556;2023-05-10T02:36:30;10.25;;;4.55;;
35188;SDS011;21762;54.480;18.556;2023-05-10T02:38:59;8.07;;;5.45;;
35188;SDS011;21762;54.480;18.556;2023-05-10T02:41:30;7.63;;;4.70;;
35188;SDS011;21762;54.480;18.556;2023-05-10T02:43:59;10.32;;;5.47;;
35188;SDS011;21762;54.480;18.556;2023-05-10T02:46:29;12.60;;;5.22;;
35188;SDS011;21762;54.480;18.556;2023-05-10T02:48:58;13.73;;;5.07;;
35188;SDS011;21762;54.480;18.556;2023-05-10T02:51:28;11.70;;;5.43;;
35188;SDS011;21762;54.480;18.556;2023-05-10T02:54:01;10.05;;;5.38;;
35188;SDS011;21762;54.480;18.556;2023-05-10T02:56:35;9.98;;;4.72;;
35188;SDS011;21762;54.480;18.556;2023-05-10T02:59:06;7.70;;;4.90;;
35188;SDS011;21762;54.480;18.556;2023-05-10T03:01:34;7.85;;;4.90;;
35188;SDS011;21762;54.480;18.556;2023-05-10T03:04:03;9.57;;;5.00;;
35188;SDS011;21762;54.480;18.556;2023-05-10T03:06:33;11.23;;;5.22;;
35188;SDS011;21762;54.480;18.556;2023-05-10T03:09:02;8.15;;;4.28;;
35188;SDS011;21762;54.480;18.556;2023-05-10T03:11:34;9.00;;;4.88;;
35188;SDS011;21762;54.480;18.556;2023-05-10T03:14:10;12.43;;;5.38;;
35188;SDS011;21762;54.480;18.556;2023-05-10T03:16:45;12.50;;;4.90;;
35188;SDS011;21762;54.480;18.556;2023-05-10T03:19:16;11.82;;;4.88;;
35188;SDS011;21762;54.480;18.556;2023-05-10T03:21:47;8.32;;;4.93;;
35188;SDS011;21762;54.480;18.556;2023-05-10T03:24:20;8.02;;;4.35;;
35188;SDS011;21762;54.480;18.556;2023-05-10T03:26:49;10.55;;;5.28;;
35188;SDS011;21762;54.480;18.556;2023-05-10T03:29:20;9.98;;;5.63;;
35188;SDS011;21762;54.480;18.556;2023-05-10T03:31:50;6.43;;;4.10;;
35188;SDS011;21762;54.480;18.556;2023-05-10T03:34:22;10.77;;;4.75;;
35188;SDS011;21762;54.480;18.556;2023-05-10T03:36:53;8.82;;;4.53;;
35188;SDS011;21762;54.480;18.556;2023-05-10T03:39:23;8.23;;;4.60;;
35188;SDS011;21762;54.480;18.556;2023-05-10T03:41:55;7.60;;;4.45;;
35188;SDS011;21762;54.480;18.556;2023-05-10T03:44:24;10.07;;;4.80;;
35188;SDS011;21762;54.480;18.556;2023-05-10T03:46:52;6.93;;;4.15;;
35188;SDS011;21762;54.480;18.556;2023-05-10T03:49:20;8.55;;;4.80;;
35188;SDS011;21762;54.480;18.556;2023-05-10T03:51:49;7.93;;;4.70;;
35188;SDS011;21762;54.480;18.556;2023-05-10T03:54:19;8.32;;;4.90;;
35188;SDS011;21762;54.480;18.556;2023-05-10T03:56:48;8.18;;;4.13;;
35188;SDS011;21762;54.480;18.556;2023-05-10T03:59:18;8.05;;;3.85;;
35188;SDS011;21762;54.480;18.556;2023-05-10T04:01:46;10.90;;;4.22;;
35188;SDS011;21762;54.480;18.556;2023-05-10T04:04:15;6.40;;;4.05;;
35188;SDS011;21762;54.480;18.556;2023-05-10T04:06:47;8.73;;;3.83;;
35188;SDS011;21762;54.480;18.556;2023-05-10T04:09:16;11.05;;;3.72;;
35188;SDS011;21762;54.480;18.556;2023-05-10T04:11:45;8.40;;;4.28;;
35188;SDS011;21762;54.480;18.556;2023-05-10T04:14:14;12.13;;;4.32;;
35188;SDS011;21762;54.480;18.556;2023-05-10T04:16:43;13.43;;;4.40;;
35188;SDS011;21762;54.480;18.556;2023-05-10T04:19:11;6.30;;;4.13;;
35188;SDS011;21762;54.480;18.556;2023-05-10T04:21:40;7.88;;;4.53;;
35188;SDS011;21762;54.480;18.556;2023-05-10T04:24:08;8.75;;;4.07;;
35188;SDS011;21762;54.480;18.556;2023-05-10T04:26:36;8.68;;;4.38;;
35188;SDS011;21762;54.480;18.556;2023-05-10T04:29:06;9.23;;;4.18;;
35188;SDS011;21762;54.480;18.556;2023-05-10T04:31:35;9.02;;;4.20;;
35188;SDS011;21762;54.480;18.556;2023-05-10T04:34:04;6.75;;;4.00;;
35188;SDS011;21762;54.480;18.556;2023-05-10T04:36:32;7.50;;;4.47;;
35188;SDS011;21762;54.480;18.556;2023-05-10T04:39:02;10.68;;;4.55;;
35188;SDS011;21762;54.480;18.556;2023-05-10T04:41:31;9.82;;;4.70;;
35188;SDS011;21762;54.480;18.556;2023-05-10T04:43:59;11.18;;;4.10;;
35188;SDS011;21762;54.480;18.556;2023-05-10T04:46:29;13.95;;;4.07;;
35188;SDS011;21762;54.480;18.556;2023-05-10T04:48:57;9.27;;;4.50;;
35188;SDS011;21762;54.480;18.556;2023-05-10T04:51:26;8.13;;;4.75;;
35188;SDS011;21762;54.480;18.556;2023-05-10T04:53:54;7.30;;;4.30;;
35188;SDS011;21762;54.480;18.556;2023-05-10T04:56:30;8.55;;;4.05;;
35188;SDS011;21762;54.480;18.556;2023-05-10T04:58:58;13.95;;;4.10;;
35188;SDS011;21762;54.480;18.556;2023-05-10T05:01:28;6.07;;;3.80;;
35188;SDS011;21762;54.480;18.556;2023-05-10T05:03:57;11.55;;;4.55;;
35188;SDS011;21762;54.480;18.556;2023-05-10T05:06:26;10.25;;;4.60;;
35188;SDS011;21762;54.480;18.556;2023-05-10T05:08:54;7.57;;;4.30;;
35188;SDS011;21762;54.480;18.556;2023-05-10T05:11:22;8.77;;;4.30;;
35188;SDS011;21762;54.480;18.556;2023-05-10T05:13:52;9.23;;;4.78;;
35188;SDS011;21762;54.480;18.556;2023-05-10T05:16:20;7.97;;;4.20;;
35188;SDS011;21762;54.480;18.556;2023-05-10T05:18:50;12.07;;;5.65;;
35188;SDS011;21762;54.480;18.556;2023-05-10T05:21:19;13.27;;;4.47;;
35188;SDS011;21762;54.480;18.556;2023-05-10T05:23:48;6.82;;;4.20;;
35188;SDS011;21762;54.480;18.556;2023-05-10T05:26:16;7.75;;;4.20;;
35188;SDS011;21762;54.480;18.556;2023-05-10T05:28:45;9.05;;;4.10;;
35188;SDS011;21762;54.480;18.556;2023-05-10T05:31:15;10.15;;;4.22;;
35188;SDS011;21762;54.480;18.556;2023-05-10T05:33:44;10.10;;;3.88;;
35188;SDS011;21762;54.480;18.556;2023-05-10T05:36:14;7.90;;;4.72;;
35188;SDS011;21762;54.480;18.556;2023-05-10T05:38:43;9.15;;;4.25;;
35188;SDS011;21762;54.480;18.556;2023-05-10T05:41:11;7.47;;;5.38;;
35188;SDS011;21762;54.480;18.556;2023-05-10T05:43:40;10.00;;;4.53;;
35188;SDS011;21762;54.480;18.556;2023-05-10T05:46:09;7.65;;;4.03;;
35188;SDS011;21762;54.480;18.556;2023-05-10T05:48:37;9.80;;;4.70;;
35188;SDS011;21762;54.480;18.556;2023-05-10T05:51:06;11.00;;;4.47;;
35188;SDS011;21762;54.480;18.556;2023-05-10T05:53:36;13.20;;;4.78;;
35188;SDS011;21762;54.480;18.556;2023-05-10T05:56:04;12.35;;;5.05;;
35188;SDS011;21762;54.480;18.556;2023-05-10T05:58:34;10.90;;;4.25;;
35188;SDS011;21762;54.480;18.556;2023-05-10T06:01:03;14.35;;;4.00;;
35188;SDS011;21762;54.480;18.556;2023-05-10T06:03:31;7.80;;;3.85;;
35188;SDS011;21762;54.480;18.556;2023-05-10T06:06:00;9.45;;;3.97;;
35188;SDS011;21762;54.480;18.556;2023-05-10T06:08:29;7.07;;;3.92;;
35188;SDS011;21762;54.480;18.556;2023-05-10T06:10:59;7.28;;;4.45;;
35188;SDS011;21762;54.480;18.556;2023-05-10T06:13:28;13.73;;;5.63;;
35188;SDS011;21762;54.480;18.556;2023-05-10T06:15:59;13.50;;;4.87;;
35188;SDS011;21762;54.480;18.556;2023-05-10T06:18:28;6.18;;;3.95;;
35188;SDS011;21762;54.480;18.556;2023-05-10T06:20:56;9.60;;;4.60;;
35188;SDS011;21762;54.480;18.556;2023-05-10T06:23:25;7.20;;;3.72;;
35188;SDS011;21762;54.480;18.556;2023-05-10T06:25:54;5.22;;;3.35;;
35188;SDS011;21762;54.480;18.556;2023-05-10T06:28:24;8.60;;;4.45;;
35188;SDS011;21762;54.480;18.556;2023-05-10T06:30:52;11.35;;;4.80;;
35188;SDS011;21762;54.480;18.556;2023-05-10T06:33:21;9.25;;;4.28;;
35188;SDS011;21762;54.480;18.556;2023-05-10T06:35:49;9.25;;;4.15;;
35188;SDS011;21762;54.480;18.556;2023-05-10T06:38:18;11.05;;;4.32;;
35188;SDS011;21762;54.480;18.556;2023-05-10T06:40:47;7.57;;;4.40;;
35188;SDS011;21762;54.480;18.556;2023-05-10T06:43:15;10.00;;;3.88;;
35188;SDS011;21762;54.480;18.556;2023-05-10T06:45:46;7.85;;;3.85;;
35188;SDS011;21762;54.480;18.556;2023-05-10T06:48:16;7.05;;;4.35;;
35188;SDS011;21762;54.480;18.556;2023-05-10T06:50:44;10.40;;;3.75;;
35188;SDS011;21762;54.480;18.556;2023-05-10T06:53:13;8.32;;;4.38;;
35188;SDS011;21762;54.480;18.556;2023-05-10T06:55:42;9.07;;;3.92;;
35188;SDS011;21762;54.480;18.556;2023-05-10T06:58:10;10.63;;;4.22;;
35188;SDS011;21762;54.480;18.556;2023-05-10T07:00:39;14.05;;;3.80;;
35188;SDS011;21762;54.480;18.556;2023-05-10T07:03:11;19.80;;;4.90;;
35188;SDS011;21762;54.480;18.556;2023-05-10T07:05:40;10.05;;;3.95;;
35188;SDS011;21762;54.480;18.556;2023-05-10T07:08:09;9.43;;;4.05;;
35188;SDS011;21762;54.480;18.556;2023-05-10T07:10:38;7.50;;;3.78;;
35188;SDS011;21762;54.480;18.556;2023-05-10T07:13:06;11.02;;;4.15;;
35188;SDS011;21762;54.480;18.556;2023-05-10T07:15:35;9.27;;;4.05;;
35188;SDS011;21762;54.480;18.556;2023-05-10T07:18:04;13.48;;;4.05;;
35188;SDS011;21762;54.480;18.556;2023-05-10T07:20:35;13.27;;;3.88;;
35188;SDS011;21762;54.480;18.556;2023-05-10T07:23:04;11.45;;;4.53;;
35188;SDS011;21762;54.480;18.556;2023-05-10T07:25:33;7.65;;;3.60;;
35188;SDS011;21762;54.480;18.556;2023-05-10T07:28:01;15.95;;;3.85;;
35188;SDS011;21762;54.480;18.556;2023-05-10T07:30:30;14.40;;;4.32;;
35188;SDS011;21762;54.480;18.556;2023-05-10T07:32:59;5.93;;;3.63;;
35188;SDS011;21762;54.480;18.556;2023-05-10T07:35:27;15.13;;;3.97;;
35188;SDS011;21762;54.480;18.556;2023-05-10T07:37:58;9.38;;;3.55;;
35188;SDS011;21762;54.480;18.556;2023-05-10T07:40:26;7.85;;;3.63;;
35188;SDS011;21762;54.480;18.556;2023-05-10T07:42:56;12.18;;;3.83;;
35188;SDS011;21762;54.480;18.556;2023-05-10T07:45:24;9.98;;;3.17;;
35188;SDS011;21762;54.480;18.556;2023-05-10T07:47:53;4.85;;;2.90;;
35188;SDS011;21762;54.480;18.556;2023-05-10T07:50:22;9.35;;;4.60;;
35188;SDS011;21762;54.480;18.556;2023-05-10T07:52:51;10.15;;;3.55;;
35188;SDS011;21762;54.480;18.556;2023-05-10T07:55:21;6.72;;;3.70;;
35188;SDS011;21762;54.480;18.556;2023-05-10T07:57:50;8.13;;;3.40;;
35188;SDS011;21762;54.480;18.556;2023-05-10T08:00:19;10.25;;;4.20;;
35188;SDS011;21762;54.480;18.556;2023-05-10T08:02:48;6.07;;;3.67;;
35188;SDS011;21762;54.480;18.556;2023-05-10T08:05:17;5.80;;;3.17;;
35188;SDS011;21762;54.480;18.556;2023-05-10T08:07:46;6.20;;;3.33;;
35188;SDS011;21762;54.480;18.556;2023-05-10T08:10:15;4.78;;;2.97;;
35188;SDS011;21762;54.480;18.556;2023-05-10T08:12:46;9.40;;;3.25;;
35188;SDS011;21762;54.480;18.556;2023-05-10T08:15:15;6.10;;;3.10;;
35188;SDS011;21762;54.480;18.556;2023-05-10T08:17:44;4.63;;;2.47;;
35188;SDS011;21762;54.480;18.556;2023-05-10T08:20:13;8.70;;;2.60;;
35188;SDS011;21762;54.480;18.556;2023-05-10T08:22:44;8.90;;;2.30;;
35188;SDS011;21762;54.480;18.556;2023-05-10T08:25:14;4.47;;;2.30;;
35188;SDS011;21762;54.480;18.556;2023-05-10T08:27:43;7.38;;;2.15;;
35188;SDS011;21762;54.480;18.556;2023-05-10T08:30:14;10.93;;;2.40;;
35188;SDS011;21762;54.480;18.556;2023-05-10T08:32:43;9.57;;;3.13;;
35188;SDS011;21762;54.480;18.556;2023-05-10T08:35:12;6.32;;;2.50;;
35188;SDS011;21762;54.480;18.556;2023-05-10T08:37:42;9.95;;;2.42;;
35188;SDS011;21762;54.480;18.556;2023-05-10T08:40:11;7.50;;;2.03;;
35188;SDS011;21762;54.480;18.556;2023-05-10T08:42:43;3.30;;;2.20;;
35188;SDS011;21762;54.480;18.556;2023-05-10T08:45:17;4.97;;;2.55;;
35188;SDS011;21762;54.480;18.556;2023-05-10T08:47:48;10.88;;;2.30;;
35188;SDS011;21762;54.480;18.556;2023-05-10T08:50:19;6.60;;;1.90;;
35188;SDS011;21762;54.480;18.556;2023-05-10T08:52:49;12.43;;;4.57;;
35188;SDS011;21762;54.480;18.556;2023-05-10T08:55:20;11.60;;;2.10;;
35188;SDS011;21762;54.480;18.556;2023-05-10T08:57:52;8.48;;;2.10;;
35188;SDS011;21762;54.480;18.556;2023-05-10T09:00:21;10.50;;;2.20;;
35188;SDS011;21762;54.480;18.556;2023-05-10T09:02:51;6.45;;;2.33;;
35188;SDS011;21762;54.480;18.556;2023-05-10T09:05:21;11.23;;;2.33;;
35188;SDS011;21762;54.480;18.556;2023-05-10T09:07:50;6.82;;;2.30;;
35188;SDS011;21762;54.480;18.556;2023-05-10T09:10:20;6.68;;;2.38;;
35188;SDS011;21762;54.480;18.556;2023-05-10T09:12:50;16.08;;;3.05;;
35188;SDS011;21762;54.480;18.556;2023-05-10T09:15:21;12.32;;;2.35;;
35188;SDS011;21762;54.480;18.556;2023-05-10T09:17:49;13.25;;;2.35;;
35188;SDS011;21762;54.480;18.556;2023-05-10T09:20:18;10.73;;;2.42;;
35188;SDS011;21762;54.480;18.556;2023-05-10T09:22:47;10.25;;;2.30;;
35188;SDS011;21762;54.480;18.556;2023-05-10T09:25:16;8.00;;;1.83;;
35188;SDS011;21762;54.480;18.556;2023-05-10T09:27:46;5.75;;;1.70;;
35188;SDS011;21762;54.480;18.556;2023-05-10T09:30:23;14.70;;;2.28;;
35188;SDS011;21762;54.480;18.556;2023-05-10T09:32:54;4.07;;;2.00;;
35188;SDS011;21762;54.480;18.556;2023-05-10T09:35:24;9.57;;;2.72;;
35188;SDS011;21762;54.480;18.556;2023-05-10T09:37:56;35.70;;;4.07;;
35188;SDS011;21762;54.480;18.556;2023-05-10T09:40:25;7.50;;;2.08;;
35188;SDS011;21762;54.480;18.556;2023-05-10T09:42:55;7.80;;;2.15;;
35188;SDS011;21762;54.480;18.556;2023-05-10T09:45:26;11.10;;;1.60;;
35188;SDS011;21762;54.480;18.556;2023-05-10T09:47:57;8.52;;;2.05;;
35188;SDS011;21762;54.480;18.556;2023-05-10T09:50:27;7.38;;;2.20;;
35188;SDS011;21762;54.480;18.556;2023-05-10T09:52:57;4.82;;;1.77;;
35188;SDS011;21762;54.480;18.556;2023-05-10T09:55:38;6.15;;;2.38;;
35188;SDS011;21762;54.480;18.556;2023-05-10T09:58:08;9.10;;;2.73;;
35188;SDS011;21762;54.480;18.556;2023-05-10T10:00:39;9.02;;;2.17;;
35188;SDS011;21762;54.480;18.556;2023-05-10T10:03:13;5.60;;;2.03;;
35188;SDS011;21762;54.480;18.556;2023-05-10T10:05:43;6.47;;;1.63;;
35188;SDS011;21762;54.480;18.556;2023-05-10T10:08:13;10.45;;;2.58;;
35188;SDS011;21762;54.480;18.556;2023-05-10T10:10:43;9.98;;;2.00;;
35188;SDS011;21762;54.480;18.556;2023-05-10T10:13:13;6.45;;;1.63;;
35188;SDS011;21762;54.480;18.556;2023-05-10T10:15:45;16.13;;;3.45;;
35188;SDS011;21762;54.480;18.556;2023-05-10T10:18:17;15.65;;;2.70;;
35188;SDS011;21762;54.480;18.556;2023-05-10T10:20:50;6.90;;;2.00;;
35188;SDS011;21762;54.480;18.556;2023-05-10T10:23:19;8.32;;;2.30;;
35188;SDS011;21762;54.480;18.556;2023-05-10T10:25:47;11.18;;;2.70;;
35188;SDS011;21762;54.480;18.556;2023-05-10T10:28:20;10.30;;;2.25;;
35188;SDS011;21762;54.480;18.556;2023-05-10T10:30:55;10.82;;;1.92;;
35188;SDS011;21762;54.480;18.556;2023-05-10T10:33:29;13.15;;;2.42;;
35188;SDS011;21762;54.480;18.556;2023-05-10T10:36:02;9.80;;;2.10;;
35188;SDS011;21762;54.480;18.556;2023-05-10T10:38:38;7.00;;;1.98;;
35188;SDS011;21762;54.480;18.556;2023-05-10T10:41:30;6.90;;;3.17;;
35188;SDS011;21762;54.480;18.556;2023-05-10T10:47:10;3.92;;;1.88;;
35188;SDS011;21762;54.480;18.556;2023-05-10T10:50:06;6.97;;;1.92;;
35188;SDS011;21762;54.480;18.556;2023-05-10T10:52:36;5.72;;;2.00;;
35188;SDS011;21762;54.480;18.556;2023-05-10T10:55:07;7.45;;;2.45;;
35188;SDS011;21762;54.480;18.556;2023-05-10T10:57:45;5.82;;;2.53;;
35188;SDS011;21762;54.480;18.556;2023-05-10T11:00:19;5.30;;;1.67;;
35188;SDS011;21762;54.480;18.556;2023-05-10T11:05:38;9.63;;;1.70;;
35188;SDS011;21762;54.480;18.556;2023-05-10T11:08:09;6.60;;;2.30;;
35188;SDS011;21762;54.480;18.556;2023-05-10T11:10:40;10.15;;;1.65;;
35188;SDS011;21762;54.480;18.556;2023-05-10T11:13:16;14.93;;;2.90;;
35188;SDS011;21762;54.480;18.556;2023-05-10T11:15:55;8.50;;;1.85;;
35188;SDS011;21762;54.480;18.556;2023-05-10T11:18:27;7.18;;;1.98;;
35188;SDS011;21762;54.480;18.556;2023-05-10T11:20:58;4.78;;;2.08;;
35188;SDS011;21762;54.480;18.556;2023-05-10T11:23:30;6.65;;;2.15;;
35188;SDS011;21762;54.480;18.556;2023-05-10T11:26:00;12.20;;;2.03;;
35188;SDS011;21762;54.480;18.556;2023-05-10T11:28:29;9.85;;;1.85;;
35188;SDS011;21762;54.480;18.556;2023-05-10T11:30:58;6.65;;;2.80;;
35188;SDS011;21762;54.480;18.556;2023-05-10T11:33:29;5.72;;;1.60;;
35188;SDS011;21762;54.480;18.556;2023-05-10T11:35:57;13.90;;;2.47;;
35188;SDS011;21762;54.480;18.556;2023-05-10T11:38:26;5.20;;;1.88;;
35188;SDS011;21762;54.480;18.556;2023-05-10T11:40:55;8.13;;;1.65;;
35188;SDS011;21762;54.480;18.556;2023-05-10T11:43:24;8.05;;;2.63;;
35188;SDS011;21762;54.480;18.556;2023-05-10T11:45:57;10.35;;;1.80;;
35188;SDS011;21762;54.480;18.556;2023-05-10T11:48:26;4.78;;;1.90;;
35188;SDS011;21762;54.480;18.556;2023-05-10T11:50:56;8.05;;;1.50;;
35188;SDS011;21762;54.480;18.556;2023-05-10T11:53:25;5.53;;;1.73;;
35188;SDS011;21762;54.480;18.556;2023-05-10T11:55:55;6.32;;;1.90;;
35188;SDS011;21762;54.480;18.556;2023-05-10T11:58:25;7.07;;;2.05;;
35188;SDS011;21762;54.480;18.556;2023-05-10T12:00:53;3.55;;;1.83;;
35188;SDS011;21762;54.480;18.556;2023-05-10T12:03:22;7.30;;;2.30;;
35188;SDS011;21762;54.480;18.556;2023-05-10T12:05:51;11.63;;;3.70;;
35188;SDS011;21762;54.480;18.556;2023-05-10T12:08:21;3.65;;;1.60;;
35188;SDS011;21762;54.480;18.556;2023-05-10T12:10:51;5.53;;;1.80;;
35188;SDS011;21762;54.480;18.556;2023-05-10T12:13:20;8.18;;;1.83;;
35188;SDS011;21762;54.480;18.556;2023-05-10T12:15:49;6.65;;;2.53;;
35188;SDS011;21762;54.480;18.556;2023-05-10T12:18:22;11.10;;;2.10;;
35188;SDS011;21762;54.480;18.556;2023-05-10T12:20:51;6.72;;;1.90;;
35188;SDS011;21762;54.480;18.556;2023-05-10T12:23:22;9.85;;;1.92;;
35188;SDS011;21762;54.480;18.556;2023-05-10T12:25:51;10.68;;;2.10;;
35188;SDS011;21762;54.480;18.556;2023-05-10T12:28:20;6.80;;;1.90;;
35188;SDS011;21762;54.480;18.556;2023-05-10T12:30:49;16.77;;;2.83;;
35188;SDS011;21762;54.480;18.556;2023-05-10T12:33:22;13.43;;;2.10;;
35188;SDS011;21762;54.480;18.556;2023-05-10T12:35:51;10.85;;;1.75;;
35188;SDS011;21762;54.480;18.556;2023-05-10T12:38:26;6.15;;;1.80;;
35188;SDS011;21762;54.480;18.556;2023-05-10T12:40:57;6.35;;;2.40;;
35188;SDS011;21762;54.480;18.556;2023-05-10T12:43:27;5.00;;;1.90;;
35188;SDS011;21762;54.480;18.556;2023-05-10T12:45:56;7.95;;;2.45;;
35188;SDS011;21762;54.480;18.556;2023-05-10T12:50:58;4.70;;;1.73;;
35188;SDS011;21762;54.480;18.556;2023-05-10T12:53:28;10.45;;;1.73;;
35188;SDS011;21762;54.480;18.556;2023-05-10T12:55:57;6.55;;;2.20;;
35188;SDS011;21762;54.480;18.556;2023-05-10T12:58:26;7.70;;;1.90;;
35188;SDS011;21762;54.480;18.556;2023-05-10T13:01:00;7.32;;;2.10;;
35188;SDS011;21762;54.480;18.556;2023-05-10T13:03:29;9.18;;;1.48;;
35188;SDS011;21762;54.480;18.556;2023-05-10T13:05:58;4.47;;;1.95;;
35188;SDS011;21762;54.480;18.556;2023-05-10T13:08:31;6.47;;;1.80;;
35188;SDS011;21762;54.480;18.556;2023-05-10T13:11:00;4.22;;;1.65;;
35188;SDS011;21762;54.480;18.556;2023-05-10T13:13:29;5.38;;;1.77;;
35188;SDS011;21762;54.480;18.556;2023-05-10T13:15:59;9.13;;;1.90;;
35188;SDS011;21762;54.480;18.556;2023-05-10T13:18:28;4.78;;;1.83;;
35188;SDS011;21762;54.480;18.556;2023-05-10T13:20:57;10.70;;;2.75;;
35188;SDS011;21762;54.480;18.556;2023-05-10T13:23:26;7.60;;;1.88;;
35188;SDS011;21762;54.480;18.556;2023-05-10T13:25:56;10.40;;;2.00;;
35188;SDS011;21762;54.480;18.556;2023-05-10T13:28:25;9.02;;;2.00;;
35188;SDS011;21762;54.480;18.556;2023-05-10T13:30:54;6.22;;;1.73;;
35188;SDS011;21762;54.480;18.556;2023-05-10T13:33:23;13.18;;;2.15;;
35188;SDS011;21762;54.480;18.556;2023-05-10T13:35:52;3.28;;;1.65;;
35188;SDS011;21762;54.480;18.556;2023-05-10T13:38:21;1.77;;;1.45;;
35188;SDS011;21762;54.480;18.556;2023-05-10T13:40:50;6.13;;;1.80;;
35188;SDS011;21762;54.480;18.556;2023-05-10T13:43:21;11.13;;;1.80;;
35188;SDS011;21762;54.480;18.556;2023-05-10T13:45:50;10.40;;;1.63;;
35188;SDS011;21762;54.480;18.556;2023-05-10T13:48:19;5.72;;;1.80;;
35188;SDS011;21762;54.480;18.556;2023-05-10T13:50:48;8.63;;;1.77;;
35188;SDS011;21762;54.480;18.556;2023-05-10T13:53:17;10.25;;;1.77;;
35188;SDS011;21762;54.480;18.556;2023-05-10T13:59:09;17.15;;;3.90;;
35188;SDS011;21762;54.480;18.556;2023-05-10T14:01:38;6.03;;;1.67;;
35188;SDS011;21762;54.480;18.556;2023-05-10T14:04:08;5.15;;;2.20;;
35188;SDS011;21762;54.480;18.556;2023-05-10T14:06:37;8.30;;;2.03;;
35188;SDS011;21762;54.480;18.556;2023-05-10T14:09:07;8.00;;;2.00;;
35188;SDS011;21762;54.480;18.556;2023-05-10T14:11:36;7.30;;;1.90;;
35188;SDS011;21762;54.480;18.556;2023-05-10T14:14:10;5.10;;;1.65;;
35188;SDS011;21762;54.480;18.556;2023-05-10T14:16:42;6.30;;;1.92;;
35188;SDS011;21762;54.480;18.556;2023-05-10T14:19:12;2.10;;;1.35;;
35188;SDS011;21762;54.480;18.556;2023-05-10T14:21:41;3.55;;;1.75;;
35188;SDS011;21762;54.480;18.556;2023-05-10T14:24:10;7.65;;;1.83;;
35188;SDS011;21762;54.480;18.556;2023-05-10T14:26:38;5.93;;;1.98;;
35188;SDS011;21762;54.480;18.556;2023-05-10T14:29:07;12.60;;;2.13;;
35188;SDS011;21762;54.480;18.556;2023-05-10T14:31:39;12.48;;;2.40;;
35188;SDS011;21762;54.480;18.556;2023-05-10T14:34:08;7.32;;;2.25;;
35188;SDS011;21762;54.480;18.556;2023-05-10T14:36:37;7.13;;;1.75;;
35188;SDS011;21762;54.480;18.556;2023-05-10T14:39:07;5.00;;;1.77;;
35188;SDS011;21762;54.480;18.556;2023-05-10T14:41:37;4.82;;;1.77;;
35188;SDS011;21762;54.480;18.556;2023-05-10T14:44:07;9.93;;;2.13;;
35188;SDS011;21762;54.480;18.556;2023-05-10T14:46:36;6.05;;;2.42;;
35188;SDS011;21762;54.480;18.556;2023-05-10T14:49:07;5.40;;;2.33;;
35188;SDS011;21762;54.480;18.556;2023-05-10T14:51:36;4.75;;;1.70;;
35188;SDS011;21762;54.480;18.556;2023-05-10T14:54:05;5.82;;;1.42;;
35188;SDS011;21762;54.480;18.556;2023-05-10T14:56:35;11.18;;;1.90;;
35188;SDS011;21762;54.480;18.556;2023-05-10T14:59:05;4.20;;;1.80;;
35188;SDS011;21762;54.480;18.556;2023-05-10T15:01:34;11.05;;;1.75;;
35188;SDS011;21762;54.480;18.556;2023-05-10T15:04:06;8.50;;;1.70;;
35188;SDS011;21762;54.480;18.556;2023-05-10T15:06:35;6.90;;;2.07;;